Terminal Aerodrome Forecast
Issued by NWS Wakefield, VA

Home | Current Version | Previous Version | Text Only | Print | Product List | Glossary On
Versions: 1 2 3 4 5 6 7 8 9 10 11 12 13 14 15 16 17 18 19 20 21 22
000
FTUS41 KAKQ 261120
TAFSBY
TAF
KSBY 261120Z 2612/2712 00000KT P6SM SCT050
     FM262100 15009KT P6SM BKN070
     FM270400 19008KT P6SM OVC040
     FM270600 20009KT 4SM SHRA OVC040=

USA.gov is the U.S. government's official web portal to all federal, state and local government web resources and services.